sensor_id;sensor_type;location;lat;lon;timestamp;temperature;humidity
4725;DHT22;2376;53.544;10.226;2023-04-25T00:01:20;9.50;99.90
4725;DHT22;2376;53.544;10.226;2023-04-25T00:03:48;9.50;99.90
4725;DHT22;2376;53.544;10.226;2023-04-25T00:06:14;9.50;99.90
4725;DHT22;2376;53.544;10.226;2023-04-25T00:08:43;9.50;99.90
4725;DHT22;2376;53.544;10.226;2023-04-25T00:11:11;9.50;99.90
4725;DHT22;2376;53.544;10.226;2023-04-25T00:13:38;9.60;99.90
4725;DHT22;2376;53.544;10.226;2023-04-25T00:16:07;9.70;99.90
4725;DHT22;2376;53.544;10.226;2023-04-25T00:18:34;9.80;99.90
4725;DHT22;2376;53.544;10.226;2023-04-25T00:21:01;9.90;99.90
4725;DHT22;2376;53.544;10.226;2023-04-25T00:23:28;9.80;99.90
4725;DHT22;2376;53.544;10.226;2023-04-25T00:25:55;9.70;99.90
4725;DHT22;2376;53.544;10.226;2023-04-25T00:28:23;9.80;99.90
4725;DHT22;2376;53.544;10.226;2023-04-25T00:30:50;9.60;99.90
4725;DHT22;2376;53.544;10.226;2023-04-25T00:33:17;9.50;99.90
4725;DHT22;2376;53.544;10.226;2023-04-25T00:35:43;9.30;99.90
4725;DHT22;2376;53.544;10.226;2023-04-25T00:38:10;9.50;99.90
4725;DHT22;2376;53.544;10.226;2023-04-25T00:40:37;9.50;99.90
4725;DHT22;2376;53.544;10.226;2023-04-25T00:43:04;9.40;99.90
4725;DHT22;2376;53.544;10.226;2023-04-25T00:45:37;9.40;99.90
4725;DHT22;2376;53.544;10.226;2023-04-25T00:48:04;9.50;99.90
4725;DHT22;2376;53.544;10.226;2023-04-25T00:50:33;9.60;99.90
4725;DHT22;2376;53.544;10.226;2023-04-25T00:53:00;9.60;99.90
4725;DHT22;2376;53.544;10.226;2023-04-25T00:55:28;9.80;99.90
4725;DHT22;2376;53.544;10.226;2023-04-25T00:57:56;9.70;99.90
4725;DHT22;2376;53.544;10.226;2023-04-25T01:00:24;9.70;99.90
4725;DHT22;2376;53.544;10.226;2023-04-25T01:02:52;9.50;99.90
4725;DHT22;2376;53.544;10.226;2023-04-25T01:05:19;9.70;99.90
4725;DHT22;2376;53.544;10.226;2023-04-25T01:07:46;9.60;99.90
4725;DHT22;2376;53.544;10.226;2023-04-25T01:10:13;9.50;99.90
4725;DHT22;2376;53.544;10.226;2023-04-25T01:12:41;9.40;99.90
4725;DHT22;2376;53.544;10.226;2023-04-25T01:15:09;9.40;99.90
4725;DHT22;2376;53.544;10.226;2023-04-25T01:17:36;9.50;99.90
4725;DHT22;2376;53.544;10.226;2023-04-25T01:20:05;9.50;99.90
4725;DHT22;2376;53.544;10.226;2023-04-25T01:22:36;9.60;99.90
4725;DHT22;2376;53.544;10.226;2023-04-25T01:25:04;9.70;99.90
4725;DHT22;2376;53.544;10.226;2023-04-25T01:27:31;9.50;99.90
4725;DHT22;2376;53.544;10.226;2023-04-25T01:29:58;9.50;99.90
4725;DHT22;2376;53.544;10.226;2023-04-25T01:32:26;9.50;99.90
4725;DHT22;2376;53.544;10.226;2023-04-25T01:34:53;9.40;99.90
4725;DHT22;2376;53.544;10.226;2023-04-25T01:37:20;9.60;99.90
4725;DHT22;2376;53.544;10.226;2023-04-25T01:39:48;9.60;99.90
4725;DHT22;2376;53.544;10.226;2023-04-25T01:42:15;9.60;99.90
4725;DHT22;2376;53.544;10.226;2023-04-25T01:44:42;9.50;99.90
4725;DHT22;2376;53.544;10.226;2023-04-25T01:47:09;9.30;99.90
4725;DHT22;2376;53.544;10.226;2023-04-25T01:49:36;9.20;99.90
4725;DHT22;2376;53.544;10.226;2023-04-25T01:52:03;9.30;99.90
4725;DHT22;2376;53.544;10.226;2023-04-25T01:54:30;9.30;99.90
4725;DHT22;2376;53.544;10.226;2023-04-25T01:56:58;9.30;99.90
4725;DHT22;2376;53.544;10.226;2023-04-25T01:59:25;9.40;99.90
4725;DHT22;2376;53.544;10.226;2023-04-25T02:01:52;9.30;99.90
4725;DHT22;2376;53.544;10.226;2023-04-25T02:04:19;9.30;99.90
4725;DHT22;2376;53.544;10.226;2023-04-25T02:06:46;9.30;99.90
4725;DHT22;2376;53.544;10.226;2023-04-25T02:09:13;9.10;99.90
4725;DHT22;2376;53.544;10.226;2023-04-25T02:11:39;9.10;99.90
4725;DHT22;2376;53.544;10.226;2023-04-25T02:14:07;9.00;99.90
4725;DHT22;2376;53.544;10.226;2023-04-25T02:16:34;9.00;99.90
4725;DHT22;2376;53.544;10.226;2023-04-25T02:19:02;8.80;99.90
4725;DHT22;2376;53.544;10.226;2023-04-25T02:21:29;8.80;99.90
4725;DHT22;2376;53.544;10.226;2023-04-25T02:23:56;9.00;99.90
4725;DHT22;2376;53.544;10.226;2023-04-25T02:26:22;9.00;99.90
4725;DHT22;2376;53.544;10.226;2023-04-25T02:28:50;8.90;99.90
4725;DHT22;2376;53.544;10.226;2023-04-25T02:31:18;9.10;99.90
4725;DHT22;2376;53.544;10.226;2023-04-25T02:33:47;9.10;99.90
4725;DHT22;2376;53.544;10.226;2023-04-25T02:36:14;9.10;99.90
4725;DHT22;2376;53.544;10.226;2023-04-25T02:38:40;9.10;99.90
4725;DHT22;2376;53.544;10.226;2023-04-25T02:41:07;9.20;99.90
4725;DHT22;2376;53.544;10.226;2023-04-25T02:43:34;9.20;99.90
4725;DHT22;2376;53.544;10.226;2023-04-25T02:46:01;9.20;99.90
4725;DHT22;2376;53.544;10.226;2023-04-25T02:48:29;9.20;99.90
4725;DHT22;2376;53.544;10.226;2023-04-25T02:50:56;9.20;99.90
4725;DHT22;2376;53.544;10.226;2023-04-25T02:53:22;8.90;99.90
4725;DHT22;2376;53.544;10.226;2023-04-25T02:55:49;8.80;99.90
4725;DHT22;2376;53.544;10.226;2023-04-25T02:58:18;8.70;99.90
4725;DHT22;2376;53.544;10.226;2023-04-25T03:00:45;8.80;99.90
4725;DHT22;2376;53.544;10.226;2023-04-25T03:03:11;8.90;99.90
4725;DHT22;2376;53.544;10.226;2023-04-25T03:05:39;8.90;99.90
4725;DHT22;2376;53.544;10.226;2023-04-25T03:08:06;8.80;99.90
4725;DHT22;2376;53.544;10.226;2023-04-25T03:10:33;8.80;99.90
4725;DHT22;2376;53.544;10.226;2023-04-25T03:13:00;8.80;99.90
4725;DHT22;2376;53.544;10.226;2023-04-25T03:15:27;8.90;99.90
4725;DHT22;2376;53.544;10.226;2023-04-25T03:17:53;8.80;99.90
4725;DHT22;2376;53.544;10.226;2023-04-25T03:20:20;8.90;99.90
4725;DHT22;2376;53.544;10.226;2023-04-25T03:22:48;8.80;99.90
4725;DHT22;2376;53.544;10.226;2023-04-25T03:25:16;8.90;99.90
4725;DHT22;2376;53.544;10.226;2023-04-25T03:27:42;8.80;99.90
4725;DHT22;2376;53.544;10.226;2023-04-25T03:30:09;8.70;99.90
4725;DHT22;2376;53.544;10.226;2023-04-25T03:32:37;8.90;99.90
4725;DHT22;2376;53.544;10.226;2023-04-25T03:35:04;8.90;99.90
4725;DHT22;2376;53.544;10.226;2023-04-25T03:37:31;8.70;99.90
4725;DHT22;2376;53.544;10.226;2023-04-25T03:40:00;8.50;99.90
4725;DHT22;2376;53.544;10.226;2023-04-25T03:42:26;8.40;99.90
4725;DHT22;2376;53.544;10.226;2023-04-25T03:44:53;8.50;99.90
4725;DHT22;2376;53.544;10.226;2023-04-25T03:47:20;8.40;99.90
4725;DHT22;2376;53.544;10.226;2023-04-25T03:49:47;8.30;99.90
4725;DHT22;2376;53.544;10.226;2023-04-25T03:52:14;8.20;99.90
4725;DHT22;2376;53.544;10.226;2023-04-25T03:54:41;8.10;99.90
4725;DHT22;2376;53.544;10.226;2023-04-25T03:57:09;8.10;99.90
4725;DHT22;2376;53.544;10.226;2023-04-25T03:59:36;8.10;99.90
4725;DHT22;2376;53.544;10.226;2023-04-25T04:02:03;8.10;99.90
4725;DHT22;2376;53.544;10.226;2023-04-25T04:04:30;8.00;99.90
4725;DHT22;2376;53.544;10.226;2023-04-25T04:06:57;8.00;99.90
4725;DHT22;2376;53.544;10.226;2023-04-25T04:09:24;7.90;99.90
4725;DHT22;2376;53.544;10.226;2023-04-25T04:11:51;7.90;99.90
4725;DHT22;2376;53.544;10.226;2023-04-25T04:14:19;7.90;99.90
4725;DHT22;2376;53.544;10.226;2023-04-25T04:16:46;7.90;99.90
4725;DHT22;2376;53.544;10.226;2023-04-25T04:19:13;8.10;99.90
4725;DHT22;2376;53.544;10.226;2023-04-25T04:21:39;7.90;99.90
4725;DHT22;2376;53.544;10.226;2023-04-25T04:24:06;7.80;99.90
4725;DHT22;2376;53.544;10.226;2023-04-25T04:26:33;7.90;99.90
4725;DHT22;2376;53.544;10.226;2023-04-25T04:29:00;8.00;99.90
4725;DHT22;2376;53.544;10.226;2023-04-25T04:31:29;7.90;99.90
4725;DHT22;2376;53.544;10.226;2023-04-25T04:33:56;8.00;99.90
4725;DHT22;2376;53.544;10.226;2023-04-25T04:36:22;7.90;99.90
4725;DHT22;2376;53.544;10.226;2023-04-25T04:38:51;8.00;99.90
4725;DHT22;2376;53.544;10.226;2023-04-25T04:41:18;7.90;99.90
4725;DHT22;2376;53.544;10.226;2023-04-25T04:43:45;7.80;99.90
4725;DHT22;2376;53.544;10.226;2023-04-25T04:46:12;7.90;99.90
4725;DHT22;2376;53.544;10.226;2023-04-25T04:48:41;7.70;99.90
4725;DHT22;2376;53.544;10.226;2023-04-25T04:53:35;7.80;99.90
4725;DHT22;2376;53.544;10.226;2023-04-25T04:56:02;7.80;99.90
4725;DHT22;2376;53.544;10.226;2023-04-25T04:58:28;7.80;99.90
4725;DHT22;2376;53.544;10.226;2023-04-25T05:00:56;7.80;99.90
4725;DHT22;2376;53.544;10.226;2023-04-25T05:03:23;7.90;99.90
4725;DHT22;2376;53.544;10.226;2023-04-25T05:05:51;7.90;99.90
4725;DHT22;2376;53.544;10.226;2023-04-25T05:08:18;7.90;99.90
4725;DHT22;2376;53.544;10.226;2023-04-25T05:10:44;7.90;99.90
4725;DHT22;2376;53.544;10.226;2023-04-25T05:13:11;8.00;99.90
4725;DHT22;2376;53.544;10.226;2023-04-25T05:15:38;8.10;99.90
4725;DHT22;2376;53.544;10.226;2023-04-25T05:18:05;8.20;99.90
4725;DHT22;2376;53.544;10.226;2023-04-25T05:20:32;8.00;99.90
4725;DHT22;2376;53.544;10.226;2023-04-25T05:23:00;8.10;99.90
4725;DHT22;2376;53.544;10.226;2023-04-25T05:25:27;8.10;99.90
4725;DHT22;2376;53.544;10.226;2023-04-25T05:27:53;8.10;99.90
4725;DHT22;2376;53.544;10.226;2023-04-25T05:30:20;7.90;99.90
4725;DHT22;2376;53.544;10.226;2023-04-25T05:32:47;7.80;99.90
4725;DHT22;2376;53.544;10.226;2023-04-25T05:35:14;7.50;99.90
4725;DHT22;2376;53.544;10.226;2023-04-25T05:37:41;7.50;99.90
4725;DHT22;2376;53.544;10.226;2023-04-25T05:40:10;7.50;99.90
4725;DHT22;2376;53.544;10.226;2023-04-25T05:42:36;7.50;99.90
4725;DHT22;2376;53.544;10.226;2023-04-25T05:45:04;7.60;99.90
4725;DHT22;2376;53.544;10.226;2023-04-25T05:47:31;7.60;99.90
4725;DHT22;2376;53.544;10.226;2023-04-25T05:49:57;7.80;99.90
4725;DHT22;2376;53.544;10.226;2023-04-25T05:52:24;8.00;99.90
4725;DHT22;2376;53.544;10.226;2023-04-25T05:54:51;8.00;99.90
4725;DHT22;2376;53.544;10.226;2023-04-25T05:57:21;8.00;99.90
4725;DHT22;2376;53.544;10.226;2023-04-25T06:02:20;8.20;99.90
4725;DHT22;2376;53.544;10.226;2023-04-25T06:04:47;8.10;99.90
4725;DHT22;2376;53.544;10.226;2023-04-25T06:07:14;8.00;99.90
4725;DHT22;2376;53.544;10.226;2023-04-25T06:09:41;8.00;99.90
4725;DHT22;2376;53.544;10.226;2023-04-25T06:12:08;8.00;99.90
4725;DHT22;2376;53.544;10.226;2023-04-25T06:14:36;8.00;99.90
4725;DHT22;2376;53.544;10.226;2023-04-25T06:17:04;8.10;99.90
4725;DHT22;2376;53.544;10.226;2023-04-25T06:19:34;8.20;99.90
4725;DHT22;2376;53.544;10.226;2023-04-25T06:22:03;8.20;99.90
4725;DHT22;2376;53.544;10.226;2023-04-25T06:24:30;8.40;99.90
4725;DHT22;2376;53.544;10.226;2023-04-25T06:26:57;8.50;99.90
4725;DHT22;2376;53.544;10.226;2023-04-25T06:29:23;8.50;99.90
4725;DHT22;2376;53.544;10.226;2023-04-25T06:31:52;8.50;99.90
4725;DHT22;2376;53.544;10.226;2023-04-25T06:34:18;8.50;99.90
4725;DHT22;2376;53.544;10.226;2023-04-25T06:36:46;8.30;99.90
4725;DHT22;2376;53.544;10.226;2023-04-25T06:39:13;8.30;99.90
4725;DHT22;2376;53.544;10.226;2023-04-25T06:41:40;8.40;99.90
4725;DHT22;2376;53.544;10.226;2023-04-25T06:44:07;8.50;99.90
4725;DHT22;2376;53.544;10.226;2023-04-25T06:46:33;8.50;99.90
4725;DHT22;2376;53.544;10.226;2023-04-25T06:49:03;8.50;99.90
4725;DHT22;2376;53.544;10.226;2023-04-25T06:51:30;8.50;99.90
4725;DHT22;2376;53.544;10.226;2023-04-25T06:53:57;8.40;99.90
4725;DHT22;2376;53.544;10.226;2023-04-25T06:56:24;8.30;99.90
4725;DHT22;2376;53.544;10.226;2023-04-25T06:58:50;8.20;99.90
4725;DHT22;2376;53.544;10.226;2023-04-25T07:01:17;8.10;99.90
4725;DHT22;2376;53.544;10.226;2023-04-25T07:03:44;8.10;99.90
4725;DHT22;2376;53.544;10.226;2023-04-25T07:06:12;8.20;99.90
4725;DHT22;2376;53.544;10.226;2023-04-25T07:08:39;8.30;99.90
4725;DHT22;2376;53.544;10.226;2023-04-25T07:11:06;8.40;99.90
4725;DHT22;2376;53.544;10.226;2023-04-25T07:13:33;8.40;99.90
4725;DHT22;2376;53.544;10.226;2023-04-25T07:16:00;8.40;99.90
4725;DHT22;2376;53.544;10.226;2023-04-25T07:18:27;8.40;99.90
4725;DHT22;2376;53.544;10.226;2023-04-25T07:20:54;8.50;99.90
4725;DHT22;2376;53.544;10.226;2023-04-25T07:23:22;8.60;99.90
4725;DHT22;2376;53.544;10.226;2023-04-25T07:25:49;8.50;99.90
4725;DHT22;2376;53.544;10.226;2023-04-25T07:28:15;8.70;99.90
4725;DHT22;2376;53.544;10.226;2023-04-25T07:30:43;8.80;99.90
4725;DHT22;2376;53.544;10.226;2023-04-25T07:33:10;8.70;99.90
4725;DHT22;2376;53.544;10.226;2023-04-25T07:35:37;8.70;99.90
4725;DHT22;2376;53.544;10.226;2023-04-25T07:38:04;8.60;99.90
4725;DHT22;2376;53.544;10.226;2023-04-25T07:40:33;8.70;99.90
4725;DHT22;2376;53.544;10.226;2023-04-25T07:43:00;8.80;99.90
4725;DHT22;2376;53.544;10.226;2023-04-25T07:45:27;8.80;99.90
4725;DHT22;2376;53.544;10.226;2023-04-25T07:47:54;8.90;99.90
4725;DHT22;2376;53.544;10.226;2023-04-25T07:50:21;9.00;99.90
4725;DHT22;2376;53.544;10.226;2023-04-25T07:52:48;9.00;99.90
4725;DHT22;2376;53.544;10.226;2023-04-25T07:55:15;9.00;99.90
4725;DHT22;2376;53.544;10.226;2023-04-25T07:57:43;9.20;99.90
4725;DHT22;2376;53.544;10.226;2023-04-25T08:00:11;9.20;99.90
4725;DHT22;2376;53.544;10.226;2023-04-25T08:02:41;9.00;99.90
4725;DHT22;2376;53.544;10.226;2023-04-25T08:05:08;9.10;99.90
4725;DHT22;2376;53.544;10.226;2023-04-25T08:07:39;9.20;99.90
4725;DHT22;2376;53.544;10.226;2023-04-25T08:10:08;9.20;99.90
4725;DHT22;2376;53.544;10.226;2023-04-25T08:12:37;9.30;99.90
4725;DHT22;2376;53.544;10.226;2023-04-25T08:15:06;9.30;99.90
4725;DHT22;2376;53.544;10.226;2023-04-25T08:17:34;9.30;99.90
4725;DHT22;2376;53.544;10.226;2023-04-25T08:20:01;9.30;99.90
4725;DHT22;2376;53.544;10.226;2023-04-25T08:22:31;9.40;99.90
4725;DHT22;2376;53.544;10.226;2023-04-25T08:24:58;9.50;99.90
4725;DHT22;2376;53.544;10.226;2023-04-25T08:27:25;9.50;99.90
4725;DHT22;2376;53.544;10.226;2023-04-25T08:29:51;9.40;99.90
4725;DHT22;2376;53.544;10.226;2023-04-25T08:32:20;9.10;99.90
4725;DHT22;2376;53.544;10.226;2023-04-25T08:34:47;9.10;99.90
4725;DHT22;2376;53.544;10.226;2023-04-25T08:37:14;9.10;99.90
4725;DHT22;2376;53.544;10.226;2023-04-25T08:39:41;9.20;99.90
4725;DHT22;2376;53.544;10.226;2023-04-25T08:42:08;9.20;99.90
4725;DHT22;2376;53.544;10.226;2023-04-25T08:44:35;9.30;99.90
4725;DHT22;2376;53.544;10.226;2023-04-25T08:47:03;9.00;99.90
4725;DHT22;2376;53.544;10.226;2023-04-25T08:49:33;9.00;99.90
4725;DHT22;2376;53.544;10.226;2023-04-25T08:52:02;9.10;99.90
4725;DHT22;2376;53.544;10.226;2023-04-25T08:54:30;9.40;99.90
4725;DHT22;2376;53.544;10.226;2023-04-25T08:57:00;9.60;99.90
4725;DHT22;2376;53.544;10.226;2023-04-25T08:59:30;9.60;99.90
4725;DHT22;2376;53.544;10.226;2023-04-25T09:01:57;9.50;99.90
4725;DHT22;2376;53.544;10.226;2023-04-25T09:04:24;9.60;99.90
4725;DHT22;2376;53.544;10.226;2023-04-25T09:06:52;9.50;99.90
4725;DHT22;2376;53.544;10.226;2023-04-25T09:09:19;9.60;99.90
4725;DHT22;2376;53.544;10.226;2023-04-25T09:11:46;9.80;99.90
4725;DHT22;2376;53.544;10.226;2023-04-25T09:14:15;9.80;99.90
4725;DHT22;2376;53.544;10.226;2023-04-25T09:17:01;9.70;99.90
4725;DHT22;2376;53.544;10.226;2023-04-25T09:19:30;9.70;99.90
4725;DHT22;2376;53.544;10.226;2023-04-25T09:22:01;9.80;99.90
4725;DHT22;2376;53.544;10.226;2023-04-25T09:24:46;9.70;99.90
4725;DHT22;2376;53.544;10.226;2023-04-25T09:27:19;9.60;99.90
4725;DHT22;2376;53.544;10.226;2023-04-25T09:29:48;9.50;99.90
4725;DHT22;2376;53.544;10.226;2023-04-25T09:32:23;9.30;99.90
4725;DHT22;2376;53.544;10.226;2023-04-25T09:34:51;9.10;99.90
4725;DHT22;2376;53.544;10.226;2023-04-25T09:37:21;9.10;99.90
4725;DHT22;2376;53.544;10.226;2023-04-25T09:39:49;9.20;99.90
4725;DHT22;2376;53.544;10.226;2023-04-25T09:42:17;9.40;99.90
4725;DHT22;2376;53.544;10.226;2023-04-25T09:44:45;9.40;99.90
4725;DHT22;2376;53.544;10.226;2023-04-25T09:47:13;9.40;99.90
4725;DHT22;2376;53.544;10.226;2023-04-25T09:49:42;9.40;99.90
4725;DHT22;2376;53.544;10.226;2023-04-25T09:52:11;9.30;99.90
4725;DHT22;2376;53.544;10.226;2023-04-25T09:54:40;9.50;99.90
4725;DHT22;2376;53.544;10.226;2023-04-25T09:57:11;9.50;99.90
4725;DHT22;2376;53.544;10.226;2023-04-25T09:59:39;9.60;99.90
4725;DHT22;2376;53.544;10.226;2023-04-25T10:02:09;9.70;99.90
4725;DHT22;2376;53.544;10.226;2023-04-25T10:04:38;9.30;99.90
4725;DHT22;2376;53.544;10.226;2023-04-25T10:07:06;9.10;99.90
4725;DHT22;2376;53.544;10.226;2023-04-25T10:09:33;9.20;99.90
4725;DHT22;2376;53.544;10.226;2023-04-25T10:12:04;9.40;99.90
4725;DHT22;2376;53.544;10.226;2023-04-25T10:14:33;9.50;99.90
4725;DHT22;2376;53.544;10.226;2023-04-25T10:17:01;9.60;99.90
4725;DHT22;2376;53.544;10.226;2023-04-25T10:19:28;9.70;99.90
4725;DHT22;2376;53.544;10.226;2023-04-25T10:22:02;9.70;99.90
4725;DHT22;2376;53.544;10.226;2023-04-25T10:24:29;9.60;99.90
4725;DHT22;2376;53.544;10.226;2023-04-25T10:26:56;9.70;99.90
4725;DHT22;2376;53.544;10.226;2023-04-25T10:29:26;9.90;99.90
4725;DHT22;2376;53.544;10.226;2023-04-25T10:31:53;9.90;99.90
4725;DHT22;2376;53.544;10.226;2023-04-25T10:34:24;10.00;99.90
4725;DHT22;2376;53.544;10.226;2023-04-25T10:36:52;10.10;99.90
4725;DHT22;2376;53.544;10.226;2023-04-25T10:39:25;10.20;99.90
4725;DHT22;2376;53.544;10.226;2023-04-25T10:41:55;10.50;99.90
4725;DHT22;2376;53.544;10.226;2023-04-25T10:44:22;10.40;99.90
4725;DHT22;2376;53.544;10.226;2023-04-25T10:46:50;10.30;99.90
4725;DHT22;2376;53.544;10.226;2023-04-25T10:49:32;10.10;99.90
4725;DHT22;2376;53.544;10.226;2023-04-25T10:52:17;10.10;99.90
4725;DHT22;2376;53.544;10.226;2023-04-25T10:54:47;10.30;99.90
4725;DHT22;2376;53.544;10.226;2023-04-25T10:57:28;10.40;99.90
4725;DHT22;2376;53.544;10.226;2023-04-25T10:59:59;10.60;98.40
4725;DHT22;2376;53.544;10.226;2023-04-25T11:02:28;10.80;99.90
4725;DHT22;2376;53.544;10.226;2023-04-25T11:04:55;10.90;99.90
4725;DHT22;2376;53.544;10.226;2023-04-25T11:07:29;10.80;99.90
4725;DHT22;2376;53.544;10.226;2023-04-25T11:10:01;10.80;99.90
4725;DHT22;2376;53.544;10.226;2023-04-25T11:12:29;10.90;99.90
4725;DHT22;2376;53.544;10.226;2023-04-25T11:15:00;11.00;99.50
4725;DHT22;2376;53.544;10.226;2023-04-25T11:17:29;11.10;99.50
4725;DHT22;2376;53.544;10.226;2023-04-25T11:19:57;11.00;97.70
4725;DHT22;2376;53.544;10.226;2023-04-25T11:22:24;11.00;97.70
4725;DHT22;2376;53.544;10.226;2023-04-25T11:24:50;10.80;97.30
4725;DHT22;2376;53.544;10.226;2023-04-25T11:27:17;10.70;98.20
4725;DHT22;2376;53.544;10.226;2023-04-25T11:29:45;10.70;99.50
4725;DHT22;2376;53.544;10.226;2023-04-25T11:32:14;10.70;99.90
4725;DHT22;2376;53.544;10.226;2023-04-25T11:34:43;10.70;99.90
4725;DHT22;2376;53.544;10.226;2023-04-25T11:37:10;10.60;99.90
4725;DHT22;2376;53.544;10.226;2023-04-25T11:39:43;10.80;99.90
4725;DHT22;2376;53.544;10.226;2023-04-25T11:42:10;11.00;99.60
4725;DHT22;2376;53.544;10.226;2023-04-25T11:44:38;11.10;99.20
4725;DHT22;2376;53.544;10.226;2023-04-25T11:47:05;11.10;98.20
4725;DHT22;2376;53.544;10.226;2023-04-25T11:49:32;11.00;99.00
4725;DHT22;2376;53.544;10.226;2023-04-25T11:52:00;10.90;99.10
4725;DHT22;2376;53.544;10.226;2023-04-25T11:54:27;10.80;99.30
4725;DHT22;2376;53.544;10.226;2023-04-25T11:56:54;10.80;99.10
4725;DHT22;2376;53.544;10.226;2023-04-25T11:59:24;10.70;99.20
4725;DHT22;2376;53.544;10.226;2023-04-25T12:01:51;10.60;99.90
4725;DHT22;2376;53.544;10.226;2023-04-25T12:04:20;10.30;99.90
4725;DHT22;2376;53.544;10.226;2023-04-25T12:06:48;10.10;99.90
4725;DHT22;2376;53.544;10.226;2023-04-25T12:09:18;10.20;99.90
4725;DHT22;2376;53.544;10.226;2023-04-25T12:11:47;10.20;99.90
4725;DHT22;2376;53.544;10.226;2023-04-25T12:14:21;10.30;99.90
4725;DHT22;2376;53.544;10.226;2023-04-25T12:16:49;10.20;99.90
4725;DHT22;2376;53.544;10.226;2023-04-25T12:19:17;10.30;99.90
4725;DHT22;2376;53.544;10.226;2023-04-25T12:21:44;10.40;99.90
4725;DHT22;2376;53.544;10.226;2023-04-25T12:24:13;10.50;99.90
4725;DHT22;2376;53.544;10.226;2023-04-25T12:26:52;10.70;99.90
4725;DHT22;2376;53.544;10.226;2023-04-25T12:29:21;11.00;99.90
4725;DHT22;2376;53.544;10.226;2023-04-25T12:31:49;11.20;99.70
4725;DHT22;2376;53.544;10.226;2023-04-25T12:34:16;11.10;97.70
4725;DHT22;2376;53.544;10.226;2023-04-25T12:36:43;11.00;96.80
4725;DHT22;2376;53.544;10.226;2023-04-25T12:39:14;11.00;97.20
4725;DHT22;2376;53.544;10.226;2023-04-25T12:41:41;11.20;94.80
4725;DHT22;2376;53.544;10.226;2023-04-25T12:44:10;11.40;89.50
4725;DHT22;2376;53.544;10.226;2023-04-25T12:46:37;11.40;83.10
4725;DHT22;2376;53.544;10.226;2023-04-25T12:49:04;11.50;77.60
4725;DHT22;2376;53.544;10.226;2023-04-25T12:51:31;11.20;72.00
4725;DHT22;2376;53.544;10.226;2023-04-25T12:53:58;11.20;71.70
4725;DHT22;2376;53.544;10.226;2023-04-25T12:56:25;11.50;70.20
4725;DHT22;2376;53.544;10.226;2023-04-25T12:58:53;11.60;70.50
4725;DHT22;2376;53.544;10.226;2023-04-25T13:01:21;11.70;70.40
4725;DHT22;2376;53.544;10.226;2023-04-25T13:03:48;11.80;67.50
4725;DHT22;2376;53.544;10.226;2023-04-25T13:06:16;11.60;67.00
4725;DHT22;2376;53.544;10.226;2023-04-25T13:08:43;11.60;66.60
4725;DHT22;2376;53.544;10.226;2023-04-25T13:11:10;11.60;67.00
4725;DHT22;2376;53.544;10.226;2023-04-25T13:13:38;11.80;68.90
4725;DHT22;2376;53.544;10.226;2023-04-25T13:16:06;11.80;68.10
4725;DHT22;2376;53.544;10.226;2023-04-25T13:18:35;11.60;67.70
4725;DHT22;2376;53.544;10.226;2023-04-25T13:21:02;11.50;70.10
4725;DHT22;2376;53.544;10.226;2023-04-25T13:23:29;11.50;73.00
4725;DHT22;2376;53.544;10.226;2023-04-25T13:25:56;11.50;75.30
4725;DHT22;2376;53.544;10.226;2023-04-25T13:28:24;11.60;75.40
4725;DHT22;2376;53.544;10.226;2023-04-25T13:30:51;11.70;73.20
4725;DHT22;2376;53.544;10.226;2023-04-25T13:33:18;11.80;75.10
4725;DHT22;2376;53.544;10.226;2023-04-25T13:35:48;11.80;73.60
4725;DHT22;2376;53.544;10.226;2023-04-25T13:38:19;11.40;74.70
4725;DHT22;2376;53.544;10.226;2023-04-25T13:40:47;11.10;76.60
4725;DHT22;2376;53.544;10.226;2023-04-25T13:43:14;10.90;83.20
4725;DHT22;2376;53.544;10.226;2023-04-25T13:45:40;10.70;87.40
4725;DHT22;2376;53.544;10.226;2023-04-25T13:48:07;10.70;90.20
4725;DHT22;2376;53.544;10.226;2023-04-25T13:50:34;10.80;90.70
4725;DHT22;2376;53.544;10.226;2023-04-25T13:53:02;10.90;91.40
4725;DHT22;2376;53.544;10.226;2023-04-25T13:55:29;11.10;92.30
4725;DHT22;2376;53.544;10.226;2023-04-25T13:57:55;11.00;93.40
4725;DHT22;2376;53.544;10.226;2023-04-25T14:00:22;10.90;93.90
4725;DHT22;2376;53.544;10.226;2023-04-25T14:02:49;10.80;94.20
4725;DHT22;2376;53.544;10.226;2023-04-25T14:05:16;10.70;95.00
4725;DHT22;2376;53.544;10.226;2023-04-25T14:07:43;10.70;99.10
4725;DHT22;2376;53.544;10.226;2023-04-25T14:10:11;10.50;99.90
4725;DHT22;2376;53.544;10.226;2023-04-25T14:12:39;10.10;99.90
4725;DHT22;2376;53.544;10.226;2023-04-25T14:15:06;9.90;99.90
4725;DHT22;2376;53.544;10.226;2023-04-25T14:17:33;9.70;99.90
4725;DHT22;2376;53.544;10.226;2023-04-25T14:20:00;9.60;99.90
4725;DHT22;2376;53.544;10.226;2023-04-25T14:22:26;9.60;99.90
4725;DHT22;2376;53.544;10.226;2023-04-25T14:24:53;9.70;99.90
4725;DHT22;2376;53.544;10.226;2023-04-25T14:27:21;9.60;99.90
4725;DHT22;2376;53.544;10.226;2023-04-25T14:29:48;9.70;99.90
4725;DHT22;2376;53.544;10.226;2023-04-25T14:32:15;9.70;99.90
4725;DHT22;2376;53.544;10.226;2023-04-25T14:34:41;9.80;99.90
4725;DHT22;2376;53.544;10.226;2023-04-25T14:37:08;9.80;99.90
4725;DHT22;2376;53.544;10.226;2023-04-25T14:39:35;9.90;99.90
4725;DHT22;2376;53.544;10.226;2023-04-25T14:42:03;10.20;99.90
4725;DHT22;2376;53.544;10.226;2023-04-25T14:44:31;10.50;99.90
4725;DHT22;2376;53.544;10.226;2023-04-25T14:46:58;10.50;99.90
4725;DHT22;2376;53.544;10.226;2023-04-25T14:49:24;10.90;99.90
4725;DHT22;2376;53.544;10.226;2023-04-25T14:51:51;11.20;99.90
4725;DHT22;2376;53.544;10.226;2023-04-25T14:54:18;11.00;99.00
4725;DHT22;2376;53.544;10.226;2023-04-25T14:56:45;11.00;98.70
4725;DHT22;2376;53.544;10.226;2023-04-25T14:59:12;11.10;96.10
4725;DHT22;2376;53.544;10.226;2023-04-25T15:01:40;10.90;90.40
4725;DHT22;2376;53.544;10.226;2023-04-25T15:04:07;11.00;87.50
4725;DHT22;2376;53.544;10.226;2023-04-25T15:06:33;11.20;84.50
4725;DHT22;2376;53.544;10.226;2023-04-25T15:09:00;11.30;83.90
4725;DHT22;2376;53.544;10.226;2023-04-25T15:11:27;11.40;79.30
4725;DHT22;2376;53.544;10.226;2023-04-25T15:13:54;11.40;75.80
4725;DHT22;2376;53.544;10.226;2023-04-25T15:16:20;11.40;74.60
4725;DHT22;2376;53.544;10.226;2023-04-25T15:18:49;11.40;72.90
4725;DHT22;2376;53.544;10.226;2023-04-25T15:21:15;11.60;70.10
4725;DHT22;2376;53.544;10.226;2023-04-25T15:23:42;11.80;68.20
4725;DHT22;2376;53.544;10.226;2023-04-25T15:26:09;11.50;71.40
4725;DHT22;2376;53.544;10.226;2023-04-25T15:28:36;11.30;77.00
4725;DHT22;2376;53.544;10.226;2023-04-25T15:31:03;11.10;80.60
4725;DHT22;2376;53.544;10.226;2023-04-25T15:33:30;11.20;79.80
4725;DHT22;2376;53.544;10.226;2023-04-25T15:35:59;11.20;80.60
4725;DHT22;2376;53.544;10.226;2023-04-25T15:38:28;11.10;81.80
4725;DHT22;2376;53.544;10.226;2023-04-25T15:40:55;11.00;78.10
4725;DHT22;2376;53.544;10.226;2023-04-25T15:43:22;11.10;74.90
4725;DHT22;2376;53.544;10.226;2023-04-25T15:45:48;11.10;75.60
4725;DHT22;2376;53.544;10.226;2023-04-25T15:48:15;11.10;74.90
4725;DHT22;2376;53.544;10.226;2023-04-25T15:50:42;11.30;76.40
4725;DHT22;2376;53.544;10.226;2023-04-25T15:53:10;11.40;77.00
4725;DHT22;2376;53.544;10.226;2023-04-25T15:55:37;11.40;75.00
4725;DHT22;2376;53.544;10.226;2023-04-25T15:58:03;11.40;75.50
4725;DHT22;2376;53.544;10.226;2023-04-25T16:00:30;11.40;76.90
4725;DHT22;2376;53.544;10.226;2023-04-25T16:03:01;11.10;77.50
4725;DHT22;2376;53.544;10.226;2023-04-25T16:05:28;11.10;76.40